Accueil
METAR-TAF:

METAR-TAF

Aéroports :

Aéroport de Newquay Cornouailles

Newquay Cornwall, Angleterre

latitude: 50-26N, longitude: 005-00W, altitude: 119 m

Observation

Le bulletin a été fait il y a 35 minutes, à 20:20 UTC
Vent 8 kt de est
Température 4°C
Humidité 93%
Pression 1011 hPa
Visibilité 10 km ou plus
Nuages épars à une hauteur de 3000 ft, Cumulonimbus.

METAR: EGHQ 212020Z 08008KT 9999 SCT030CB 04/03 Q1011

Heure: 20:55 (20:55 UTC)

Prévision

Le bulletin a été fait il y a 3 heures et 55 minutes, à 17:00 UTC
Prévision valable du 21 à 18 UTC au 21 à 22 UTC
Vent 7 kt de est/sud-est
Visibilité 10 km ou plus
Nuages épars à une hauteur de 2500 ft
Probabilité 30% :
Temporairement
du 21 à 18 UTC au 21 à 22 UTC
Visibilité: 7000 m
Nuages fragmentés à une hauteur de 1200 ft
averses de pluie

TAF: EGHQ 211700Z 2118/2122 12007KT 9999 SCT025 PROB30 TEMPO 2118/2122 7000 SHRA BKN012

Observations et prévisions météorologiques de plus de 4000 aéroports (messages METAR et TAF).

Les stations disponibles sont représentées par des disques jaunes et rouges sur la carte.

Passer la souris dessus pour voir le nom de la station.

Cliquer dessus pour voir les observations et prévisions météorologiques.

Pour changer de carte: cliquez sur les boutons verts avec une croix noire pour zoomer, sur le bouton vert avec un tiret pour effectuer un zoom arrière, ou sur les flèches vertes pour les cartes adjacentes.


METAR-TAF: